sensor_id;sensor_type;location;lat;lon;timestamp;temperature;humidity
75994;DHT22;64680;53.800;9.988;2023-12-22T00:01:39;4.70;1.00
75994;DHT22;64680;53.800;9.988;2023-12-22T00:04:05;4.60;1.00
75994;DHT22;64680;53.800;9.988;2023-12-22T00:06:32;4.60;1.00
75994;DHT22;64680;53.800;9.988;2023-12-22T00:08:58;4.60;1.00
75994;DHT22;64680;53.800;9.988;2023-12-22T00:11:23;4.60;1.00
75994;DHT22;64680;53.800;9.988;2023-12-22T00:13:49;4.80;1.00
75994;DHT22;64680;53.800;9.988;2023-12-22T00:16:14;4.80;1.00
75994;DHT22;64680;53.800;9.988;2023-12-22T00:18:40;4.70;1.00
75994;DHT22;64680;53.800;9.988;2023-12-22T00:21:11;4.60;1.00
75994;DHT22;64680;53.800;9.988;2023-12-22T00:23:37;4.70;1.00
75994;DHT22;64680;53.800;9.988;2023-12-22T00:26:04;4.70;1.00
75994;DHT22;64680;53.800;9.988;2023-12-22T00:28:30;4.70;1.00
75994;DHT22;64680;53.800;9.988;2023-12-22T00:30:57;4.70;1.00
75994;DHT22;64680;53.800;9.988;2023-12-22T00:33:23;4.70;1.00
75994;DHT22;64680;53.800;9.988;2023-12-22T00:35:49;4.70;1.00
75994;DHT22;64680;53.800;9.988;2023-12-22T00:38:14;4.70;1.00
75994;DHT22;64680;53.800;9.988;2023-12-22T00:40:40;4.80;1.00
75994;DHT22;64680;53.800;9.988;2023-12-22T00:43:05;4.80;1.00
75994;DHT22;64680;53.800;9.988;2023-12-22T00:45:31;4.60;1.00
75994;DHT22;64680;53.800;9.988;2023-12-22T00:47:57;4.40;1.00
75994;DHT22;64680;53.800;9.988;2023-12-22T00:50:22;4.20;1.00
75994;DHT22;64680;53.800;9.988;2023-12-22T00:52:48;4.20;1.00
75994;DHT22;64680;53.800;9.988;2023-12-22T00:55:14;4.10;1.00
75994;DHT22;64680;53.800;9.988;2023-12-22T00:57:39;4.10;1.00
75994;DHT22;64680;53.800;9.988;2023-12-22T01:00:05;4.10;1.00
75994;DHT22;64680;53.800;9.988;2023-12-22T01:02:34;4.00;1.00
75994;DHT22;64680;53.800;9.988;2023-12-22T01:04:59;4.00;1.00
75994;DHT22;64680;53.800;9.988;2023-12-22T01:07:25;4.10;1.00
75994;DHT22;64680;53.800;9.988;2023-12-22T01:09:51;4.20;1.00
75994;DHT22;64680;53.800;9.988;2023-12-22T01:12:16;4.20;1.00
75994;DHT22;64680;53.800;9.988;2023-12-22T01:14:42;4.20;1.00
75994;DHT22;64680;53.800;9.988;2023-12-22T01:17:11;4.20;1.00
75994;DHT22;64680;53.800;9.988;2023-12-22T01:19:36;4.30;1.00
75994;DHT22;64680;53.800;9.988;2023-12-22T01:22:02;4.30;1.00
75994;DHT22;64680;53.800;9.988;2023-12-22T01:24:28;4.40;1.00
75994;DHT22;64680;53.800;9.988;2023-12-22T01:26:53;4.40;1.00
75994;DHT22;64680;53.800;9.988;2023-12-22T01:29:19;4.30;3.00
75994;DHT22;64680;53.800;9.988;2023-12-22T01:31:45;4.20;6.90
75994;DHT22;64680;53.800;9.988;2023-12-22T01:34:10;4.00;17.70
75994;DHT22;64680;53.800;9.988;2023-12-22T01:36:36;3.90;26.00
75994;DHT22;64680;53.800;9.988;2023-12-22T01:39:01;3.70;32.90
75994;DHT22;64680;53.800;9.988;2023-12-22T01:41:27;3.70;35.10
75994;DHT22;64680;53.800;9.988;2023-12-22T01:43:53;3.60;37.20
75994;DHT22;64680;53.800;9.988;2023-12-22T01:46:18;3.50;37.30
75994;DHT22;64680;53.800;9.988;2023-12-22T01:48:44;3.50;37.70
75994;DHT22;64680;53.800;9.988;2023-12-22T01:51:10;3.50;36.60
75994;DHT22;64680;53.800;9.988;2023-12-22T01:53:35;3.40;36.20
75994;DHT22;64680;53.800;9.988;2023-12-22T01:56:02;3.40;36.50
75994;DHT22;64680;53.800;9.988;2023-12-22T01:58:28;3.30;35.70
75994;DHT22;64680;53.800;9.988;2023-12-22T02:00:56;3.20;37.10
75994;DHT22;64680;53.800;9.988;2023-12-22T02:03:22;3.20;36.90
75994;DHT22;64680;53.800;9.988;2023-12-22T02:05:48;3.20;37.80
75994;DHT22;64680;53.800;9.988;2023-12-22T02:08:17;3.20;38.90
75994;DHT22;64680;53.800;9.988;2023-12-22T02:10:43;3.30;40.30
75994;DHT22;64680;53.800;9.988;2023-12-22T02:13:10;3.30;41.30
75994;DHT22;64680;53.800;9.988;2023-12-22T02:15:36;3.30;43.50
75994;DHT22;64680;53.800;9.988;2023-12-22T02:18:14;3.30;47.60
75994;DHT22;64680;53.800;9.988;2023-12-22T02:20:42;3.30;52.90
75994;DHT22;64680;53.800;9.988;2023-12-22T02:23:09;3.20;57.60
75994;DHT22;64680;53.800;9.988;2023-12-22T02:25:35;3.10;58.90
75994;DHT22;64680;53.800;9.988;2023-12-22T02:28:07;2.90;61.00
75994;DHT22;64680;53.800;9.988;2023-12-22T02:33:01;2.50;75.10
75994;DHT22;64680;53.800;9.988;2023-12-22T02:35:29;2.40;78.50
75994;DHT22;64680;53.800;9.988;2023-12-22T02:38:00;2.30;83.40
75994;DHT22;64680;53.800;9.988;2023-12-22T02:40:27;2.20;84.90
75994;DHT22;64680;53.800;9.988;2023-12-22T02:42:53;2.20;87.50
75994;DHT22;64680;53.800;9.988;2023-12-22T02:45:19;2.30;89.30
75994;DHT22;64680;53.800;9.988;2023-12-22T02:47:46;2.30;92.10
75994;DHT22;64680;53.800;9.988;2023-12-22T02:50:13;2.50;90.80
75994;DHT22;64680;53.800;9.988;2023-12-22T02:52:39;2.60;85.00
75994;DHT22;64680;53.800;9.988;2023-12-22T02:55:05;2.70;81.70
75994;DHT22;64680;53.800;9.988;2023-12-22T02:57:31;2.60;70.60
75994;DHT22;64680;53.800;9.988;2023-12-22T02:59:57;2.40;75.00
75994;DHT22;64680;53.800;9.988;2023-12-22T03:02:22;2.40;77.80
75994;DHT22;64680;53.800;9.988;2023-12-22T03:04:48;2.30;79.30
75994;DHT22;64680;53.800;9.988;2023-12-22T03:07:14;2.20;80.40
75994;DHT22;64680;53.800;9.988;2023-12-22T03:09:41;2.20;81.00
75994;DHT22;64680;53.800;9.988;2023-12-22T03:12:07;2.10;80.70
75994;DHT22;64680;53.800;9.988;2023-12-22T03:14:33;2.10;74.70
75994;DHT22;64680;53.800;9.988;2023-12-22T03:17:00;2.10;70.10
75994;DHT22;64680;53.800;9.988;2023-12-22T03:19:26;2.10;63.70
75994;DHT22;64680;53.800;9.988;2023-12-22T03:21:51;2.10;62.90
75994;DHT22;64680;53.800;9.988;2023-12-22T03:24:17;2.00;63.20
75994;DHT22;64680;53.800;9.988;2023-12-22T03:26:48;1.90;64.60
75994;DHT22;64680;53.800;9.988;2023-12-22T03:29:13;1.90;64.90
75994;DHT22;64680;53.800;9.988;2023-12-22T03:31:39;1.90;64.40
75994;DHT22;64680;53.800;9.988;2023-12-22T03:34:05;1.90;65.90
75994;DHT22;64680;53.800;9.988;2023-12-22T03:36:30;1.80;68.00
75994;DHT22;64680;53.800;9.988;2023-12-22T03:38:56;1.80;69.40
75994;DHT22;64680;53.800;9.988;2023-12-22T03:41:22;1.80;70.10
75994;DHT22;64680;53.800;9.988;2023-12-22T03:43:49;1.90;69.90
75994;DHT22;64680;53.800;9.988;2023-12-22T03:46:15;1.90;69.40
75994;DHT22;64680;53.800;9.988;2023-12-22T03:48:40;1.90;69.70
75994;DHT22;64680;53.800;9.988;2023-12-22T03:51:06;1.90;70.50
75994;DHT22;64680;53.800;9.988;2023-12-22T03:53:32;2.00;68.20
75994;DHT22;64680;53.800;9.988;2023-12-22T03:55:57;2.00;66.80
75994;DHT22;64680;53.800;9.988;2023-12-22T03:58:23;2.10;65.60
75994;DHT22;64680;53.800;9.988;2023-12-22T04:00:48;2.10;64.90
75994;DHT22;64680;53.800;9.988;2023-12-22T04:03:14;2.30;64.30
75994;DHT22;64680;53.800;9.988;2023-12-22T04:05:40;2.40;59.50
75994;DHT22;64680;53.800;9.988;2023-12-22T04:08:06;2.50;61.40
75994;DHT22;64680;53.800;9.988;2023-12-22T04:10:32;2.30;69.60
75994;DHT22;64680;53.800;9.988;2023-12-22T04:12:58;2.20;73.70
75994;DHT22;64680;53.800;9.988;2023-12-22T04:15:23;2.00;79.30
75994;DHT22;64680;53.800;9.988;2023-12-22T04:17:49;2.00;83.20
75994;DHT22;64680;53.800;9.988;2023-12-22T04:20:15;2.00;85.20
75994;DHT22;64680;53.800;9.988;2023-12-22T04:22:41;2.10;83.20
75994;DHT22;64680;53.800;9.988;2023-12-22T04:25:07;2.10;82.60
75994;DHT22;64680;53.800;9.988;2023-12-22T04:27:34;2.10;84.00
75994;DHT22;64680;53.800;9.988;2023-12-22T04:29:59;2.20;82.30
75994;DHT22;64680;53.800;9.988;2023-12-22T04:32:25;2.50;69.20
75994;DHT22;64680;53.800;9.988;2023-12-22T04:34:50;2.50;67.50
75994;DHT22;64680;53.800;9.988;2023-12-22T04:37:16;2.60;64.10
75994;DHT22;64680;53.800;9.988;2023-12-22T04:39:41;2.60;61.80
75994;DHT22;64680;53.800;9.988;2023-12-22T04:42:07;2.50;60.50
75994;DHT22;64680;53.800;9.988;2023-12-22T04:44:32;2.40;60.50
75994;DHT22;64680;53.800;9.988;2023-12-22T04:46:58;2.50;58.50
75994;DHT22;64680;53.800;9.988;2023-12-22T04:49:24;2.50;57.70
75994;DHT22;64680;53.800;9.988;2023-12-22T04:51:49;2.40;56.90
75994;DHT22;64680;53.800;9.988;2023-12-22T04:54:15;2.50;54.70
75994;DHT22;64680;53.800;9.988;2023-12-22T04:56:40;2.50;52.10
75994;DHT22;64680;53.800;9.988;2023-12-22T04:59:06;2.50;50.50
75994;DHT22;64680;53.800;9.988;2023-12-22T05:01:31;2.50;44.60
75994;DHT22;64680;53.800;9.988;2023-12-22T05:03:57;2.60;40.90
75994;DHT22;64680;53.800;9.988;2023-12-22T05:06:22;2.70;33.10
75994;DHT22;64680;53.800;9.988;2023-12-22T05:08:48;2.80;30.10
75994;DHT22;64680;53.800;9.988;2023-12-22T05:11:14;2.80;29.10
75994;DHT22;64680;53.800;9.988;2023-12-22T05:13:39;2.80;28.80
75994;DHT22;64680;53.800;9.988;2023-12-22T05:16:05;2.80;25.70
75994;DHT22;64680;53.800;9.988;2023-12-22T05:18:31;2.80;26.00
75994;DHT22;64680;53.800;9.988;2023-12-22T05:20:56;2.90;22.40
75994;DHT22;64680;53.800;9.988;2023-12-22T05:23:22;3.00;19.00
75994;DHT22;64680;53.800;9.988;2023-12-22T05:25:48;3.20;17.40
75994;DHT22;64680;53.800;9.988;2023-12-22T05:28:13;3.20;18.60
75994;DHT22;64680;53.800;9.988;2023-12-22T05:30:39;3.00;25.00
75994;DHT22;64680;53.800;9.988;2023-12-22T05:33:04;2.60;37.70
75994;DHT22;64680;53.800;9.988;2023-12-22T05:35:30;2.40;39.20
75994;DHT22;64680;53.800;9.988;2023-12-22T05:37:56;2.30;41.60
75994;DHT22;64680;53.800;9.988;2023-12-22T05:40:22;2.30;39.20
75994;DHT22;64680;53.800;9.988;2023-12-22T05:42:48;2.20;39.50
75994;DHT22;64680;53.800;9.988;2023-12-22T05:45:14;2.10;40.40
75994;DHT22;64680;53.800;9.988;2023-12-22T05:47:39;2.10;34.60
75994;DHT22;64680;53.800;9.988;2023-12-22T05:50:06;2.00;30.10
75994;DHT22;64680;53.800;9.988;2023-12-22T05:52:31;2.00;29.40
75994;DHT22;64680;53.800;9.988;2023-12-22T05:54:57;1.90;30.60
75994;DHT22;64680;53.800;9.988;2023-12-22T05:57:25;2.00;30.50
75994;DHT22;64680;53.800;9.988;2023-12-22T05:59:50;1.90;30.50
75994;DHT22;64680;53.800;9.988;2023-12-22T06:02:16;2.00;29.60
75994;DHT22;64680;53.800;9.988;2023-12-22T06:04:41;2.00;30.60
75994;DHT22;64680;53.800;9.988;2023-12-22T06:07:07;2.00;30.90
75994;DHT22;64680;53.800;9.988;2023-12-22T06:09:32;2.10;29.80
75994;DHT22;64680;53.800;9.988;2023-12-22T06:11:58;2.30;30.90
75994;DHT22;64680;53.800;9.988;2023-12-22T06:14:24;2.20;37.20
75994;DHT22;64680;53.800;9.988;2023-12-22T06:16:49;2.10;45.20
75994;DHT22;64680;53.800;9.988;2023-12-22T06:19:16;1.90;46.80
75994;DHT22;64680;53.800;9.988;2023-12-22T06:21:42;1.90;45.20
75994;DHT22;64680;53.800;9.988;2023-12-22T06:24:07;1.80;47.40
75994;DHT22;64680;53.800;9.988;2023-12-22T06:26:33;1.70;45.30
75994;DHT22;64680;53.800;9.988;2023-12-22T06:28:59;1.80;44.70
75994;DHT22;64680;53.800;9.988;2023-12-22T06:31:25;1.80;42.40
75994;DHT22;64680;53.800;9.988;2023-12-22T06:33:51;1.80;40.20
75994;DHT22;64680;53.800;9.988;2023-12-22T06:36:24;1.80;39.10
75994;DHT22;64680;53.800;9.988;2023-12-22T06:38:51;1.80;35.40
75994;DHT22;64680;53.800;9.988;2023-12-22T06:41:24;1.90;31.00
75994;DHT22;64680;53.800;9.988;2023-12-22T06:43:50;2.10;22.10
75994;DHT22;64680;53.800;9.988;2023-12-22T06:46:20;2.20;20.00
75994;DHT22;64680;53.800;9.988;2023-12-22T06:48:47;2.40;17.00
75994;DHT22;64680;53.800;9.988;2023-12-22T06:51:31;2.50;17.40
75994;DHT22;64680;53.800;9.988;2023-12-22T06:53:58;2.40;17.00
75994;DHT22;64680;53.800;9.988;2023-12-22T06:56:34;2.50;16.70
75994;DHT22;64680;53.800;9.988;2023-12-22T06:58:59;2.60;16.50
75994;DHT22;64680;53.800;9.988;2023-12-22T07:01:26;2.70;16.50
75994;DHT22;64680;53.800;9.988;2023-12-22T07:03:52;2.70;16.90
75994;DHT22;64680;53.800;9.988;2023-12-22T07:06:18;2.70;21.20
75994;DHT22;64680;53.800;9.988;2023-12-22T07:08:44;2.60;23.10
75994;DHT22;64680;53.800;9.988;2023-12-22T07:11:10;2.50;21.40
75994;DHT22;64680;53.800;9.988;2023-12-22T07:13:37;2.50;21.40
75994;DHT22;64680;53.800;9.988;2023-12-22T07:16:03;2.50;19.00
75994;DHT22;64680;53.800;9.988;2023-12-22T07:18:28;2.50;15.00
75994;DHT22;64680;53.800;9.988;2023-12-22T07:20:57;2.60;13.70
75994;DHT22;64680;53.800;9.988;2023-12-22T07:23:24;2.60;16.20
75994;DHT22;64680;53.800;9.988;2023-12-22T07:25:49;2.50;13.70
75994;DHT22;64680;53.800;9.988;2023-12-22T07:28:15;2.50;14.10
75994;DHT22;64680;53.800;9.988;2023-12-22T07:30:43;2.60;12.30
75994;DHT22;64680;53.800;9.988;2023-12-22T07:33:09;2.70;10.40
75994;DHT22;64680;53.800;9.988;2023-12-22T07:35:34;2.70;8.90
75994;DHT22;64680;53.800;9.988;2023-12-22T07:38:00;2.70;7.90
75994;DHT22;64680;53.800;9.988;2023-12-22T07:40:28;2.80;7.50
75994;DHT22;64680;53.800;9.988;2023-12-22T07:42:58;2.80;7.40
75994;DHT22;64680;53.800;9.988;2023-12-22T07:45:23;2.90;6.80
75994;DHT22;64680;53.800;9.988;2023-12-22T07:47:49;2.90;6.80
75994;DHT22;64680;53.800;9.988;2023-12-22T07:50:15;2.90;7.70
75994;DHT22;64680;53.800;9.988;2023-12-22T07:52:40;2.90;7.40
75994;DHT22;64680;53.800;9.988;2023-12-22T07:55:09;2.80;8.20
75994;DHT22;64680;53.800;9.988;2023-12-22T07:57:36;2.90;8.40
75994;DHT22;64680;53.800;9.988;2023-12-22T08:00:02;2.90;7.40
75994;DHT22;64680;53.800;9.988;2023-12-22T08:02:28;2.90;7.90
75994;DHT22;64680;53.800;9.988;2023-12-22T08:04:54;3.00;8.80
75994;DHT22;64680;53.800;9.988;2023-12-22T08:07:20;3.10;11.50
75994;DHT22;64680;53.800;9.988;2023-12-22T08:09:45;3.10;15.40
75994;DHT22;64680;53.800;9.988;2023-12-22T08:12:11;3.00;21.90
75994;DHT22;64680;53.800;9.988;2023-12-22T08:14:36;2.90;30.00
75994;DHT22;64680;53.800;9.988;2023-12-22T08:17:02;2.80;34.60
75994;DHT22;64680;53.800;9.988;2023-12-22T08:19:28;2.70;36.70
75994;DHT22;64680;53.800;9.988;2023-12-22T08:21:53;2.60;38.60
75994;DHT22;64680;53.800;9.988;2023-12-22T08:24:20;2.50;39.80
75994;DHT22;64680;53.800;9.988;2023-12-22T08:26:45;2.50;39.10
75994;DHT22;64680;53.800;9.988;2023-12-22T08:29:11;2.60;38.00
75994;DHT22;64680;53.800;9.988;2023-12-22T08:31:37;2.60;36.90
75994;DHT22;64680;53.800;9.988;2023-12-22T08:34:03;2.60;36.60
75994;DHT22;64680;53.800;9.988;2023-12-22T08:36:28;2.70;35.90
75994;DHT22;64680;53.800;9.988;2023-12-22T08:38:54;2.70;34.70
75994;DHT22;64680;53.800;9.988;2023-12-22T08:41:20;2.80;34.30
75994;DHT22;64680;53.800;9.988;2023-12-22T08:43:45;2.80;33.60
75994;DHT22;64680;53.800;9.988;2023-12-22T08:46:11;2.90;33.70
75994;DHT22;64680;53.800;9.988;2023-12-22T08:48:38;2.90;34.00
75994;DHT22;64680;53.800;9.988;2023-12-22T08:51:04;3.00;32.70
75994;DHT22;64680;53.800;9.988;2023-12-22T08:53:30;3.00;32.50
75994;DHT22;64680;53.800;9.988;2023-12-22T08:55:59;3.00;31.20
75994;DHT22;64680;53.800;9.988;2023-12-22T08:58:26;3.10;29.30
75994;DHT22;64680;53.800;9.988;2023-12-22T09:00:51;3.30;25.20
75994;DHT22;64680;53.800;9.988;2023-12-22T09:03:17;3.40;19.70
75994;DHT22;64680;53.800;9.988;2023-12-22T09:05:42;3.50;16.20
75994;DHT22;64680;53.800;9.988;2023-12-22T09:08:08;3.60;16.60
75994;DHT22;64680;53.800;9.988;2023-12-22T09:10:34;3.70;14.10
75994;DHT22;64680;53.800;9.988;2023-12-22T09:13:00;3.70;13.00
75994;DHT22;64680;53.800;9.988;2023-12-22T09:15:26;3.70;15.10
75994;DHT22;64680;53.800;9.988;2023-12-22T09:17:53;3.70;21.70
75994;DHT22;64680;53.800;9.988;2023-12-22T09:20:19;3.50;29.50
75994;DHT22;64680;53.800;9.988;2023-12-22T09:22:45;3.20;39.40
75994;DHT22;64680;53.800;9.988;2023-12-22T09:25:10;2.90;46.90
75994;DHT22;64680;53.800;9.988;2023-12-22T09:27:36;2.80;43.90
75994;DHT22;64680;53.800;9.988;2023-12-22T09:30:02;2.60;47.80
75994;DHT22;64680;53.800;9.988;2023-12-22T09:32:28;2.60;49.20
75994;DHT22;64680;53.800;9.988;2023-12-22T09:34:53;2.70;53.20
75994;DHT22;64680;53.800;9.988;2023-12-22T09:37:20;2.80;52.40
75994;DHT22;64680;53.800;9.988;2023-12-22T09:39:46;2.80;50.90
75994;DHT22;64680;53.800;9.988;2023-12-22T09:42:11;2.90;50.60
75994;DHT22;64680;53.800;9.988;2023-12-22T09:44:39;3.00;50.30
75994;DHT22;64680;53.800;9.988;2023-12-22T09:47:06;3.00;48.60
75994;DHT22;64680;53.800;9.988;2023-12-22T09:49:34;3.00;47.00
75994;DHT22;64680;53.800;9.988;2023-12-22T09:52:01;3.10;46.30
75994;DHT22;64680;53.800;9.988;2023-12-22T09:54:29;3.10;42.90
75994;DHT22;64680;53.800;9.988;2023-12-22T09:56:55;3.20;38.70
75994;DHT22;64680;53.800;9.988;2023-12-22T09:59:22;3.30;33.80
75994;DHT22;64680;53.800;9.988;2023-12-22T10:01:50;3.40;29.00
75994;DHT22;64680;53.800;9.988;2023-12-22T10:04:16;3.40;28.90
75994;DHT22;64680;53.800;9.988;2023-12-22T10:06:44;3.50;30.80
75994;DHT22;64680;53.800;9.988;2023-12-22T10:09:11;3.60;28.70
75994;DHT22;64680;53.800;9.988;2023-12-22T10:11:41;3.70;29.90
75994;DHT22;64680;53.800;9.988;2023-12-22T10:14:09;3.80;24.70
75994;DHT22;64680;53.800;9.988;2023-12-22T10:16:36;3.80;17.90
75994;DHT22;64680;53.800;9.988;2023-12-22T10:19:03;3.90;17.30
75994;DHT22;64680;53.800;9.988;2023-12-22T10:21:29;4.00;10.40
75994;DHT22;64680;53.800;9.988;2023-12-22T10:23:56;4.00;9.10
75994;DHT22;64680;53.800;9.988;2023-12-22T10:26:22;4.00;8.00
75994;DHT22;64680;53.800;9.988;2023-12-22T10:28:48;4.10;5.40
75994;DHT22;64680;53.800;9.988;2023-12-22T10:31:14;4.10;7.60
75994;DHT22;64680;53.800;9.988;2023-12-22T10:33:40;4.00;3.10
75994;DHT22;64680;53.800;9.988;2023-12-22T10:36:07;4.00;4.80
75994;DHT22;64680;53.800;9.988;2023-12-22T10:38:33;4.00;4.50
75994;DHT22;64680;53.800;9.988;2023-12-22T10:41:03;4.10;2.60
75994;DHT22;64680;53.800;9.988;2023-12-22T10:43:30;4.10;2.10
75994;DHT22;64680;53.800;9.988;2023-12-22T10:45:56;4.20;3.00
75994;DHT22;64680;53.800;9.988;2023-12-22T10:48:22;4.30;1.00
75994;DHT22;64680;53.800;9.988;2023-12-22T10:50:48;4.20;1.00
75994;DHT22;64680;53.800;9.988;2023-12-22T10:53:15;4.20;2.50
75994;DHT22;64680;53.800;9.988;2023-12-22T10:55:40;4.00;1.20
75994;DHT22;64680;53.800;9.988;2023-12-22T10:58:06;4.00;2.30
75994;DHT22;64680;53.800;9.988;2023-12-22T11:00:38;4.00;2.30
75994;DHT22;64680;53.800;9.988;2023-12-22T11:03:08;4.10;2.40
75994;DHT22;64680;53.800;9.988;2023-12-22T11:05:37;4.00;1.90
75994;DHT22;64680;53.800;9.988;2023-12-22T11:08:05;4.00;2.60
75994;DHT22;64680;53.800;9.988;2023-12-22T11:10:32;4.00;1.00
75994;DHT22;64680;53.800;9.988;2023-12-22T11:12:59;4.00;1.00
75994;DHT22;64680;53.800;9.988;2023-12-22T11:15:26;4.00;1.00
75994;DHT22;64680;53.800;9.988;2023-12-22T11:17:56;4.10;1.00
75994;DHT22;64680;53.800;9.988;2023-12-22T11:20:24;4.40;1.00
75994;DHT22;64680;53.800;9.988;2023-12-22T11:22:51;4.40;1.00
75994;DHT22;64680;53.800;9.988;2023-12-22T11:25:18;4.50;1.00
75994;DHT22;64680;53.800;9.988;2023-12-22T11:27:44;4.40;1.00
75994;DHT22;64680;53.800;9.988;2023-12-22T11:30:12;4.30;1.00
75994;DHT22;64680;53.800;9.988;2023-12-22T11:32:39;4.30;1.00
75994;DHT22;64680;53.800;9.988;2023-12-22T11:35:06;4.30;1.00
75994;DHT22;64680;53.800;9.988;2023-12-22T11:37:35;4.30;1.00
75994;DHT22;64680;53.800;9.988;2023-12-22T11:40:01;4.50;1.00
75994;DHT22;64680;53.800;9.988;2023-12-22T11:42:30;4.70;1.00
75994;DHT22;64680;53.800;9.988;2023-12-22T11:45:02;4.80;1.00
75994;DHT22;64680;53.800;9.988;2023-12-22T11:47:28;4.80;1.00
75994;DHT22;64680;53.800;9.988;2023-12-22T11:49:54;4.80;1.00
75994;DHT22;64680;53.800;9.988;2023-12-22T11:52:26;4.70;1.00
75994;DHT22;64680;53.800;9.988;2023-12-22T11:54:54;4.80;1.00
75994;DHT22;64680;53.800;9.988;2023-12-22T11:57:32;4.70;1.00
75994;DHT22;64680;53.800;9.988;2023-12-22T12:00:06;4.70;1.00
75994;DHT22;64680;53.800;9.988;2023-12-22T12:02:36;4.80;1.00
75994;DHT22;64680;53.800;9.988;2023-12-22T12:05:03;4.80;1.00
75994;DHT22;64680;53.800;9.988;2023-12-22T12:07:46;4.80;1.00
75994;DHT22;64680;53.800;9.988;2023-12-22T12:13:06;4.90;1.00
75994;DHT22;64680;53.800;9.988;2023-12-22T12:15:33;4.90;1.00
75994;DHT22;64680;53.800;9.988;2023-12-22T12:18:00;4.90;1.00
75994;DHT22;64680;53.800;9.988;2023-12-22T12:20:27;4.80;1.00
75994;DHT22;64680;53.800;9.988;2023-12-22T12:22:53;4.70;1.00
75994;DHT22;64680;53.800;9.988;2023-12-22T12:25:28;4.60;1.00
75994;DHT22;64680;53.800;9.988;2023-12-22T12:28:08;4.60;1.00
75994;DHT22;64680;53.800;9.988;2023-12-22T12:30:36;4.70;1.00
75994;DHT22;64680;53.800;9.988;2023-12-22T12:33:13;4.80;1.00
75994;DHT22;64680;53.800;9.988;2023-12-22T12:35:40;4.80;1.00
75994;DHT22;64680;53.800;9.988;2023-12-22T12:38:07;4.70;1.00
75994;DHT22;64680;53.800;9.988;2023-12-22T12:40:33;4.60;1.00
75994;DHT22;64680;53.800;9.988;2023-12-22T12:43:01;4.50;1.00
75994;DHT22;64680;53.800;9.988;2023-12-22T12:45:28;4.40;1.00
75994;DHT22;64680;53.800;9.988;2023-12-22T12:48:03;4.30;1.00
75994;DHT22;64680;53.800;9.988;2023-12-22T12:50:29;4.20;1.00
75994;DHT22;64680;53.800;9.988;2023-12-22T12:52:56;4.20;2.90
75994;DHT22;64680;53.800;9.988;2023-12-22T12:55:23;4.10;4.10
75994;DHT22;64680;53.800;9.988;2023-12-22T12:57:53;4.00;5.90
75994;DHT22;64680;53.800;9.988;2023-12-22T13:00:31;3.90;8.20
75994;DHT22;64680;53.800;9.988;2023-12-22T13:05:30;3.80;13.00
75994;DHT22;64680;53.800;9.988;2023-12-22T13:08:12;3.80;15.70
75994;DHT22;64680;53.800;9.988;2023-12-22T13:10:39;3.80;16.70
75994;DHT22;64680;53.800;9.988;2023-12-22T13:13:05;3.90;15.60
75994;DHT22;64680;53.800;9.988;2023-12-22T13:15:31;3.90;16.10
75994;DHT22;64680;53.800;9.988;2023-12-22T13:17:56;3.90;16.10
75994;DHT22;64680;53.800;9.988;2023-12-22T13:20:23;3.90;15.80
75994;DHT22;64680;53.800;9.988;2023-12-22T13:22:49;3.90;16.90
75994;DHT22;64680;53.800;9.988;2023-12-22T13:25:15;3.90;17.20
75994;DHT22;64680;53.800;9.988;2023-12-22T13:27:48;4.00;16.30
75994;DHT22;64680;53.800;9.988;2023-12-22T13:30:37;4.00;15.50
75994;DHT22;64680;53.800;9.988;2023-12-22T13:33:06;4.00;15.40
75994;DHT22;64680;53.800;9.988;2023-12-22T13:35:32;4.00;15.80
75994;DHT22;64680;53.800;9.988;2023-12-22T13:37:59;4.10;15.90
75994;DHT22;64680;53.800;9.988;2023-12-22T13:40:24;4.10;14.60
75994;DHT22;64680;53.800;9.988;2023-12-22T13:42:57;4.10;14.00
75994;DHT22;64680;53.800;9.988;2023-12-22T13:45:27;4.10;15.10
75994;DHT22;64680;53.800;9.988;2023-12-22T13:47:53;4.00;20.90
75994;DHT22;64680;53.800;9.988;2023-12-22T13:50:19;3.90;26.90
75994;DHT22;64680;53.800;9.988;2023-12-22T13:52:48;3.80;28.50
75994;DHT22;64680;53.800;9.988;2023-12-22T13:55:16;3.70;29.60
75994;DHT22;64680;53.800;9.988;2023-12-22T13:57:42;3.60;29.70
75994;DHT22;64680;53.800;9.988;2023-12-22T14:02:46;3.70;30.00
75994;DHT22;64680;53.800;9.988;2023-12-22T14:05:12;3.60;29.10
75994;DHT22;64680;53.800;9.988;2023-12-22T14:07:38;3.60;27.60
75994;DHT22;64680;53.800;9.988;2023-12-22T14:10:08;3.60;28.70
75994;DHT22;64680;53.800;9.988;2023-12-22T14:12:34;3.60;27.10
75994;DHT22;64680;53.800;9.988;2023-12-22T14:15:00;3.60;26.80
75994;DHT22;64680;53.800;9.988;2023-12-22T14:17:25;3.60;25.60
75994;DHT22;64680;53.800;9.988;2023-12-22T14:19:51;3.50;24.90
75994;DHT22;64680;53.800;9.988;2023-12-22T14:22:16;3.50;24.10
75994;DHT22;64680;53.800;9.988;2023-12-22T14:24:42;3.50;23.70
75994;DHT22;64680;53.800;9.988;2023-12-22T14:27:08;3.50;23.70
75994;DHT22;64680;53.800;9.988;2023-12-22T14:29:34;3.50;24.10
75994;DHT22;64680;53.800;9.988;2023-12-22T14:32:02;3.50;23.70
75994;DHT22;64680;53.800;9.988;2023-12-22T14:34:27;3.60;22.30
75994;DHT22;64680;53.800;9.988;2023-12-22T14:36:53;3.60;21.40
75994;DHT22;64680;53.800;9.988;2023-12-22T14:39:19;3.70;21.90
75994;DHT22;64680;53.800;9.988;2023-12-22T14:41:44;3.70;22.00
75994;DHT22;64680;53.800;9.988;2023-12-22T14:44:12;3.70;21.40
75994;DHT22;64680;53.800;9.988;2023-12-22T14:46:38;3.70;22.50
75994;DHT22;64680;53.800;9.988;2023-12-22T14:49:05;3.70;21.90
75994;DHT22;64680;53.800;9.988;2023-12-22T14:51:35;3.70;21.40
75994;DHT22;64680;53.800;9.988;2023-12-22T14:54:01;3.70;20.00
75994;DHT22;64680;53.800;9.988;2023-12-22T14:56:27;3.70;19.00
75994;DHT22;64680;53.800;9.988;2023-12-22T14:58:52;3.70;19.70
75994;DHT22;64680;53.800;9.988;2023-12-22T15:01:18;3.60;20.10
75994;DHT22;64680;53.800;9.988;2023-12-22T15:03:44;3.60;20.50
75994;DHT22;64680;53.800;9.988;2023-12-22T15:06:09;3.60;20.20
75994;DHT22;64680;53.800;9.988;2023-12-22T15:08:35;3.60;19.90
75994;DHT22;64680;53.800;9.988;2023-12-22T15:11:00;3.60;19.30
75994;DHT22;64680;53.800;9.988;2023-12-22T15:13:26;3.50;20.50
75994;DHT22;64680;53.800;9.988;2023-12-22T15:15:52;3.50;19.50
75994;DHT22;64680;53.800;9.988;2023-12-22T15:18:17;3.40;20.30
75994;DHT22;64680;53.800;9.988;2023-12-22T15:20:43;3.40;20.30
75994;DHT22;64680;53.800;9.988;2023-12-22T15:23:08;3.40;22.60
75994;DHT22;64680;53.800;9.988;2023-12-22T15:25:34;3.30;23.60
75994;DHT22;64680;53.800;9.988;2023-12-22T15:28:01;3.30;23.60
75994;DHT22;64680;53.800;9.988;2023-12-22T15:30:26;3.30;23.00
75994;DHT22;64680;53.800;9.988;2023-12-22T15:32:53;3.30;22.70
75994;DHT22;64680;53.800;9.988;2023-12-22T15:35:19;3.30;22.70
75994;DHT22;64680;53.800;9.988;2023-12-22T15:37:45;3.30;22.10
75994;DHT22;64680;53.800;9.988;2023-12-22T15:40:10;3.30;21.10
75994;DHT22;64680;53.800;9.988;2023-12-22T15:42:36;3.30;21.50
75994;DHT22;64680;53.800;9.988;2023-12-22T15:45:02;3.20;20.30
75994;DHT22;64680;53.800;9.988;2023-12-22T15:47:29;3.20;20.20
75994;DHT22;64680;53.800;9.988;2023-12-22T15:49:54;3.20;21.50
75994;DHT22;64680;53.800;9.988;2023-12-22T15:52:20;3.20;20.00
75994;DHT22;64680;53.800;9.988;2023-12-22T15:54:45;3.30;19.00
75994;DHT22;64680;53.800;9.988;2023-12-22T15:57:11;3.30;18.60